x

Eel River - 17nm Wsw Of Eureka, Ca (46022) Wave Buoy

2:50am - Sun 30th Aug 2015 All times are PDT. -7 hours from GMT.

  • Sig Wave height 5.9ft
  • Swell Direction
  • Peak Period 8s
  • Average Period 7s
  • Wind
    11mph, 13mph gusts
  • Sea Temp 61°f
  • Air Temp 61°f
  • Sea Pressure 1016.4mb
  • Eel River - 17nm Wsw Of Eureka, Ca
  • Eel River - 17nm Wsw Of Eureka, Ca

More Historic Weather Station data

Upgrade to MSW Pro to gain access to the past 30 days of data for over 8000 Wavebouys and Weather Stations around the globe.

Join Pro

Comparision Forecast

View Surf forecast
   
Sun 08/30 2:50am 6ft 8s 7s 11 13 mph 1016.4mb 61f 61f
1:50am 6ft 14s 7s 13 16 mph 1016.5mb 60f 61f
12:50am 6ft 15s 7s 11 13 mph 1016.6mb 60f 61f
Sat 08/29 11:50pm 6ft 7s 7s 13 16 mph 1016mb 60f 61f
10:50pm 6.5ft 8s 7s 13 16 mph 1016mb 60f 62f
9:50pm 6ft 8s 7s 16 18 mph 1015.7mb 59f 62f
8:50pm 7ft 8s 7s 13 16 mph 1015.5mb 59f 61f
7:50pm 7.5ft 9s 7s 18 20 mph 1015.2mb 60f 62f
6:50pm 6.5ft 9s 7s 20 25 mph 1015mb 60f 62f
5:50pm 7ft 9s 7s 18 22 mph 1015mb 61f 62f
4:50pm 6.5ft 15s 6s 20 22 mph 1014.8mb 61f 62f
3:50pm 6ft 15s 6s 18 22 mph 1014.9mb 61f 62f
2:50pm 6ft 16s 6s 20 25 mph 1015.1mb 61f 62f
1:50pm 6ft 15s 6s 18 22 mph 1015.2mb 61f 62f
12:50pm 5.5ft 15s 6s 18 22 mph 1014.8mb 61f 62f
11:50am 6ft 8s 7s 16 18 mph 1014.7mb 60f 61f
10:50am 5ft 15s 7s 18 20 mph 1014.2mb 60f 61f
9:50am 5ft 15s 7s 18 20 mph 1013.6mb 60f 61f
8:50am 4.5ft 15s 6s 13 16 mph 1013.5mb 60f 62f
7:50am 4.5ft 15s 6s 16 18 mph 1013.2mb 60f 62f
6:50am 4.5ft 15s 6s 16 18 mph 1012.6mb 60f 61f
5:50am 4.5ft 16s 6s 16 18 mph 1012.2mb 60f 61f
4:50am 4.5ft 16s 5s 16 20 mph 1011.3mb 60f 61f
3:50am 5ft 16s 6s 20 25 mph 1010.5mb 60f 60f
2:50am 5.5ft 6s 5s 22 27 mph 1009.8mb 60f 61f
1:50am 5.5ft 15s 5s 27 31 mph 1009mb 60f 62f
12:50am 5.5ft 5s 5s 29 36 mph 1007.9mb 60f 62f
Fri 08/28 11:50pm 5ft 5s 5s 31 36 mph 1007.8mb 60f 62f
10:50pm 4.5ft 15s 5s 27 34 mph 1007.7mb 60f 63f
9:50pm 4ft 15s 5s 25 31 mph 1008.1mb 61f 63f
8:50pm 3.5ft 16s 5s 20 27 mph 1008.4mb 61f 62f
7:50pm 3.5ft 14s 7s 13 16 mph 1009.3mb 62f 62f
6:50pm 3ft 16s 7s 16 18 mph 1009.6mb 62f 61f
5:50pm 3.5ft 16s 8s 11 13 mph 1010.5mb 62f 61f
4:50pm 3.5ft 16s 8s 7 9 mph 1010.5mb 62f 63f
3:50pm 3.5ft 16s 7s 7 9 mph 1011.5mb 62f 62f
2:50pm 3.5ft 16s 8s 4 7 mph 1012.2mb 63f 63f
1:50pm 3.5ft 14s 8s  -  2 mph 1012.4mb 62f 63f
12:50pm 3.5ft 14s 8s 7
mph
1012.2mb 61f 62f
11:50am 3.5ft 16s 8s 7 9 mph 1012.5mb 61f 63f
10:50am 3.5ft 15s 9s 9
mph
1012.2mb 61f 62f
9:50am 3.5ft 15s 7s 4 7 mph 1012.6mb 61f 64f
8:50am 3.5ft 16s 8s 13 16 mph 1012.6mb 62f 62f
7:50am 3.5ft 10s 8s 13 16 mph 1013.5mb 62f 62f
6:50am 3.5ft 9s 7s 4 9 mph 1014.6mb 62f 62f
5:50am 3.5ft 16s 7s 4 7 mph 1015.2mb 62f 62f
4:50am 4.5ft 15s 8s 9 11 mph 1015mb 62f 63f
3:50am 4.5ft 15s 7s 7 9 mph 1016mb 62f 62f
2:50am 4ft 14s 7s  -  2 mph 1016.4mb 62f 63f
1:50am 4ft 15s 7s 4 7 mph 1017mb 62f 63f
12:50am 4ft 15s 7s 9 11 mph 1017.3mb 62f 63f
Thu 08/27 11:50pm 4ft 15s 8s 4
mph
1018mb 63f 64f
10:50pm 3.5ft 16s 8s 4 7 mph 1018.2mb 64f 65f
9:50pm 3.5ft 15s 8s 7 9 mph 1018.4mb 64f 64f
8:50pm 3ft 14s 9s  -  2 mph 1018mb 64f 64f
7:50pm 3.5ft 13s 9s 2
mph
1017.9mb 64f 64f
6:50pm 3.5ft 15s 9s 2 4 mph 1018.5mb 66f 64f
5:50pm 3.5ft 15s 8s 4
mph
1019.1mb 66f 64f
4:50pm 3.5ft 15s 8s 2
mph
1019.2mb 65f 64f
3:50pm 3.5ft 16s 8s  -  2 mph 1019.4mb 62f 63f
2:50pm 3.5ft 10s 8s 2
mph
1019.7mb 63f 61f
1:50pm 3.5ft 15s 8s  -  2 mph 1019.7mb 63f 61f
12:50pm 3.5ft 15s 9s  -  2 mph 1019.6mb 62f 59f
11:50am 3.5ft 16s 9s 4 7 mph 1019.6mb 61f 58f
10:50am 3ft 15s 9s 2 4 mph 1019.2mb 60f 57f
9:50am 3.5ft 9s 9s 2 4 mph 1019mb 60f 56f
8:50am 3.5ft 16s 9s 2 4 mph 1018.9mb 60f 56f
7:50am 3.5ft 13s 9s 7
mph
1018.7mb 60f 56f
6:50am 3ft 14s 9s 4
mph
1018.7mb 60f 57f
5:50am 3.5ft 14s 9s 4 7 mph 1018.7mb 60f 58f
4:50am 3.5ft 9s 9s 7 9 mph 1018.7mb 60f 58f
3:50am 3.5ft 14s 9s 7 9 mph 1018.9mb 60f 59f
2:50am 4ft 14s 9s 7
mph
1018.8mb 60f 59f
1:50am 3.5ft 10s 9s 7
mph
1018.9mb 60f 59f
12:50am 3.5ft 16s 9s 7 9 mph 1018.6mb 60f 60f
Wed 08/26 11:50pm 3ft 14s 8s 4 7 mph 1018.5mb 60f 59f
10:50pm 3.5ft 10s 9s 7 9 mph 1018.2mb 60f 59f
9:50pm 3.5ft 10s 9s 7 9 mph 1018.5mb 61f 60f
8:50pm 3.5ft 14s 8s 7 9 mph 1018mb 61f 60f
7:50pm 3.5ft 10s 8s 7
mph
1018.1mb 61f 60f
6:50pm 3.5ft 10s 8s 4 7 mph 1018.4mb 61f 61f
5:50pm 3.5ft 10s 7s 4 7 mph 1018.4mb 61f 61f
4:50pm 3.5ft 10s 7s 4 7 mph 1018.4mb 61f 61f
3:50pm 3.5ft 10s 7s 7 9 mph 1018.4mb 60f 60f
2:50pm 3.5ft 10s 7s 9 11 mph 1018.4mb 60f 60f
1:50pm 3.5ft 10s 7s 9 11 mph 1018.2mb 60f 60f
12:50pm 3.5ft 10s 7s 7 9 mph 1018.2mb 60f 59f
11:50am 3.5ft 9s 7s 7 9 mph 1018.3mb 59f 59f
10:50am 3.5ft 10s 7s 4 7 mph 1018.1mb 58f 59f